createdAt,value
2018-01-22T00:04:32.449Z,91.44
2018-01-22T00:07:05.164Z,91.36
2018-01-22T00:09:38.011Z,91.32
2018-01-22T00:12:11.336Z,90.93
2018-01-22T00:14:44.350Z,90.84
2018-01-22T00:17:16.747Z,90.82
2018-01-22T00:19:49.618Z,90.57
2018-01-22T00:22:20.801Z,90.37
2018-01-22T00:24:53.835Z,90.08
2018-01-22T00:27:26.624Z,90.44
2018-01-22T00:29:59.093Z,90.57
2018-01-22T00:32:31.780Z,90.36
2018-01-22T00:35:03.391Z,90.45
2018-01-22T00:37:36.967Z,90.63
2018-01-22T00:40:09.340Z,90.34
2018-01-22T00:42:42.338Z,90.12
2018-01-22T00:45:15.192Z,90.05
2018-01-22T00:47:47.428Z,89.86
2018-01-22T00:50:19.534Z,89.59
2018-01-22T00:55:29.393Z,89.54
2018-01-22T00:58:01.076Z,89.66
2018-01-22T01:00:32.423Z,89.66
2018-01-22T01:03:04.772Z,89.92
2018-01-22T01:05:38.510Z,90.52
2018-01-22T01:08:11.062Z,90.75
2018-01-22T01:10:44.214Z,90.97
2018-01-22T01:13:15.754Z,91.18
2018-01-22T01:15:48.005Z,91.37
2018-01-22T01:18:18.874Z,91.17
2018-01-22T01:20:52.001Z,91.67
2018-01-22T01:23:23.209Z,91.76
2018-01-22T01:25:52.288Z,91.69
2018-01-22T01:28:21.342Z,91.74
2018-01-22T01:30:50.376Z,92.37
2018-01-22T01:33:22.774Z,92.85
2018-01-22T01:35:56.116Z,93.08
2018-01-22T01:38:28.743Z,93.15
2018-01-22T01:41:01.376Z,93.44
2018-01-22T01:43:32.741Z,93.85
2018-01-22T01:46:05.693Z,93.41
2018-01-22T01:48:37.846Z,93.71
2018-01-22T01:51:09.842Z,93.63
2018-01-22T01:53:40.778Z,93.92
2018-01-22T01:56:14.251Z,94.00
2018-01-22T01:58:47.095Z,94.23
2018-01-22T02:01:19.585Z,94.52
2018-01-22T02:03:52.602Z,94.17
2018-01-22T02:06:25.932Z,93.80
2018-01-22T02:08:58.288Z,93.68
2018-01-22T02:11:31.677Z,93.17
2018-01-22T02:14:04.112Z,93.16
2018-01-22T02:16:37.619Z,93.64
2018-01-22T02:19:08.906Z,93.92
2018-01-22T02:21:40.821Z,93.86
2018-01-22T02:24:14.748Z,94.06
2018-01-22T02:26:48.174Z,93.87
2018-01-22T02:29:20.225Z,93.88
2018-01-22T02:31:53.210Z,93.50
2018-01-22T02:34:26.090Z,93.65
2018-01-22T02:36:58.228Z,94.23
2018-01-22T02:39:31.808Z,93.94
2018-01-22T02:42:04.271Z,93.82
2018-01-22T02:44:37.512Z,94.19
2018-01-22T02:47:10.800Z,93.81
2018-01-22T02:49:43.679Z,93.74
2018-01-22T02:52:16.538Z,93.88
2018-01-22T02:54:50.326Z,94.70
2018-01-22T02:57:24.183Z,95.10
2018-01-22T02:59:55.877Z,95.91
2018-01-22T03:02:28.840Z,95.63
2018-01-22T03:05:02.742Z,94.60
2018-01-22T03:07:34.798Z,93.90
2018-01-22T03:10:05.916Z,94.06
2018-01-22T03:12:38.888Z,94.06
2018-01-22T03:15:11.629Z,93.78
2018-01-22T03:17:43.913Z,93.72
2018-01-22T03:20:16.886Z,93.53
2018-01-22T03:22:49.881Z,93.04
2018-01-22T03:25:22.163Z,93.52
2018-01-22T03:33:09.256Z,93.42
2018-01-22T03:35:41.675Z,94.09
2018-01-22T03:38:15.204Z,93.80
2018-01-22T03:40:48.381Z,94.14
2018-01-22T03:43:20.470Z,93.85
2018-01-22T03:45:53.031Z,93.61
2018-01-22T03:51:03.239Z,94.05
2018-01-22T03:53:36.330Z,94.42
2018-01-22T03:56:09.454Z,94.45
2018-01-22T03:58:42.262Z,93.61
2018-01-22T04:01:16.207Z,93.23
2018-01-22T04:03:51.104Z,93.69
2018-01-22T04:06:23.636Z,93.69
2018-01-22T04:08:55.938Z,94.22
2018-01-22T04:14:10.112Z,93.85
2018-01-22T04:16:43.258Z,94.11
2018-01-22T04:19:16.181Z,94.46
2018-01-22T04:21:49.460Z,94.24
2018-01-22T04:24:21.122Z,95.03
2018-01-22T04:29:30.514Z,94.82
2018-01-22T04:32:02.787Z,95.36
2018-01-22T04:34:36.154Z,94.83
2018-01-22T04:37:09.531Z,94.32
2018-01-22T04:39:42.889Z,95.10
2018-01-22T04:42:16.492Z,95.24
2018-01-22T04:44:49.908Z,94.85
2018-01-22T04:49:59.455Z,93.70
2018-01-22T04:55:11.318Z,95.82
2018-01-22T04:57:43.905Z,96.33
2018-01-22T05:00:15.887Z,95.60
2018-01-22T05:02:48.880Z,95.16
2018-01-22T05:05:21.957Z,95.13
2018-01-22T05:07:55.033Z,95.65
2018-01-22T05:10:28.242Z,96.12
2018-01-22T05:13:00.651Z,95.94
2018-01-22T05:15:32.668Z,96.14
2018-01-22T05:18:04.880Z,95.31
2018-01-22T05:20:37.002Z,94.96
2018-01-22T05:23:09.172Z,95.08
2018-01-22T05:25:42.542Z,94.53
2018-01-22T05:28:15.801Z,94.05
2018-01-22T05:30:48.411Z,94.19
2018-01-22T05:36:00.318Z,94.14
2018-01-22T05:38:33.428Z,93.93
2018-01-22T05:41:06.292Z,94.07
2018-01-22T05:43:38.272Z,94.10
2018-01-22T05:46:10.906Z,93.67
2018-01-22T05:48:46.672Z,93.57
2018-01-22T05:51:19.336Z,93.50
2018-01-22T05:53:52.389Z,94.23
2018-01-22T05:56:25.750Z,94.36
2018-01-22T06:01:35.438Z,93.99
2018-01-22T06:04:09.548Z,94.01
2018-01-22T06:06:42.771Z,94.08
2018-01-22T06:11:53.473Z,94.06
2018-01-22T06:14:26.340Z,94.23
2018-01-22T06:19:35.029Z,94.33
2018-01-22T06:22:07.401Z,94.44
2018-01-22T06:24:40.632Z,94.74
2018-01-22T06:27:14.472Z,94.60
2018-01-22T06:29:47.563Z,95.42
2018-01-22T06:32:20.499Z,95.44
2018-01-22T06:34:52.205Z,95.47
2018-01-22T06:37:25.920Z,94.96
2018-01-22T06:40:00.335Z,94.81
2018-01-22T06:42:32.585Z,94.69
2018-01-22T06:47:42.933Z,93.82
2018-01-22T06:50:14.934Z,94.08
2018-01-22T06:55:24.120Z,94.48
2018-01-22T06:57:56.683Z,94.50
2018-01-22T07:00:29.298Z,94.89
2018-01-22T07:03:01.503Z,95.22
2018-01-22T07:05:34.113Z,95.30
2018-01-22T07:08:07.629Z,95.51
2018-01-22T07:10:41.340Z,94.53
2018-01-22T07:13:13.079Z,95.12
2018-01-22T07:15:45.637Z,95.16
2018-01-22T07:20:56.265Z,94.99
2018-01-22T07:23:28.185Z,94.95
2018-01-22T07:25:59.324Z,94.77
2018-01-22T07:28:33.742Z,95.15
2018-01-22T07:31:06.890Z,95.55
2018-01-22T07:33:39.576Z,95.33
2018-01-22T07:36:12.452Z,94.82
2018-01-22T07:38:43.153Z,94.47
2018-01-22T07:43:54.138Z,95.51
2018-01-22T07:46:27.462Z,94.48
2018-01-22T07:48:58.431Z,95.07
2018-01-22T07:51:30.660Z,95.53
2018-01-22T07:54:05.517Z,95.21
2018-01-22T07:56:38.475Z,95.33
2018-01-22T07:59:11.966Z,96.10
2018-01-22T08:01:45.712Z,95.76
2018-01-22T08:04:18.231Z,95.04
2018-01-22T08:06:48.629Z,95.15
2018-01-22T08:09:21.804Z,95.36
2018-01-22T08:11:54.775Z,95.46
2018-01-22T08:14:27.918Z,95.61
2018-01-22T08:17:01.183Z,95.39
2018-01-22T08:19:33.502Z,95.01
2018-01-22T08:22:06.223Z,95.41
2018-01-22T08:24:39.330Z,96.33
2018-01-22T08:29:54.970Z,96.11
2018-01-22T08:32:28.203Z,95.92
2018-01-22T08:35:01.319Z,95.71
2018-01-22T08:37:33.975Z,95.95
2018-01-22T08:42:39.091Z,95.69
2018-01-22T08:45:13.277Z,96.17
2018-01-22T08:47:45.769Z,96.53
2018-01-22T08:50:17.343Z,96.37
2018-01-22T08:52:49.182Z,96.47
2018-01-22T09:00:36.998Z,94.67
2018-01-22T09:05:45.260Z,94.52
2018-01-22T09:08:18.111Z,95.04
2018-01-22T09:13:27.175Z,95.03
2018-01-22T09:15:59.903Z,94.51
2018-01-22T09:18:33.488Z,94.73
2018-01-22T09:21:05.294Z,94.96
2018-01-22T09:23:34.437Z,93.83
2018-01-22T09:26:06.110Z,93.63
2018-01-22T09:28:39.724Z,93.62
2018-01-22T09:31:12.112Z,94.03
2018-01-22T09:33:45.882Z,94.16
2018-01-22T09:36:19.061Z,93.16
2018-01-22T09:38:52.464Z,91.96
2018-01-22T09:41:22.529Z,92.89
2018-01-22T09:43:54.964Z,93.21
2018-01-22T09:46:27.728Z,91.81
2018-01-22T09:51:36.065Z,92.37
2018-01-22T09:54:07.606Z,92.09
2018-01-22T09:59:17.906Z,91.82
2018-01-22T10:04:26.022Z,92.15
2018-01-22T10:06:59.041Z,90.91
2018-01-22T10:09:32.873Z,90.63
2018-01-22T10:12:01.882Z,91.73
2018-01-22T10:17:10.851Z,91.44
2018-01-22T10:19:45.749Z,89.66
2018-01-22T10:22:18.665Z,89.63
2018-01-22T10:27:27.547Z,90.08
2018-01-22T10:37:49.063Z,90.62
2018-01-22T10:40:19.574Z,93.00
2018-01-22T10:48:03.494Z,94.33
2018-01-22T10:50:37.135Z,94.23
2018-01-22T10:53:08.759Z,96.77
2018-01-22T10:55:42.616Z,97.67
2018-01-22T10:58:15.875Z,96.30
2018-01-22T11:00:49.197Z,94.47
2018-01-22T11:03:20.198Z,95.00
2018-01-22T11:11:05.333Z,96.63
2018-01-22T11:13:38.442Z,97.41
2018-01-22T11:16:12.966Z,97.44
2018-01-22T11:18:45.961Z,96.86
2018-01-22T11:21:18.258Z,97.04
2018-01-22T11:23:50.306Z,98.31
2018-01-22T11:26:22.321Z,98.00
2018-01-22T11:28:55.938Z,98.54
2018-01-22T11:31:29.378Z,97.70
2018-01-22T11:34:02.011Z,97.50
2018-01-22T11:36:35.327Z,97.80
2018-01-22T11:39:09.935Z,97.47
2018-01-22T11:41:42.556Z,97.50
2018-01-22T11:44:15.183Z,96.56
2018-01-22T11:49:22.093Z,96.53
2018-01-22T11:51:53.814Z,96.14
2018-01-22T11:57:01.949Z,96.23
2018-01-22T11:59:34.442Z,96.50
2018-01-22T12:02:07.247Z,95.87
2018-01-22T12:04:41.378Z,96.48
2018-01-22T12:07:14.471Z,96.95
2018-01-22T12:09:48.726Z,96.40
2018-01-22T12:14:59.762Z,96.88
2018-01-22T12:17:32.960Z,97.50
2018-01-22T12:20:05.993Z,97.02
2018-01-22T12:22:38.973Z,97.26
2018-01-22T12:25:11.397Z,97.58
2018-01-22T12:27:45.413Z,97.03
2018-01-22T12:30:18.080Z,96.99
2018-01-22T12:32:50.509Z,96.91
2018-01-22T12:35:22.972Z,96.38
2018-01-22T12:37:56.135Z,96.53
2018-01-22T12:40:28.586Z,96.10
2018-01-22T12:43:01.225Z,95.27
2018-01-22T12:48:10.741Z,96.12
2018-01-22T12:50:43.205Z,95.49
2018-01-22T12:55:57.637Z,96.01
2018-01-22T13:01:06.120Z,94.71
2018-01-22T13:03:37.213Z,94.75
2018-01-22T13:06:09.770Z,94.33
2018-01-22T13:08:43.439Z,94.56
2018-01-22T13:11:15.860Z,93.60
2018-01-22T13:13:48.977Z,94.25
2018-01-22T13:16:20.687Z,94.56
2018-01-22T13:18:54.496Z,94.24
2018-01-22T13:21:27.477Z,93.87
2018-01-22T13:26:38.711Z,93.01
2018-01-22T13:31:47.411Z,92.96
2018-01-22T13:34:18.770Z,92.73
2018-01-22T13:36:51.684Z,93.17
2018-01-22T13:39:22.941Z,93.42
2018-01-22T13:41:55.454Z,93.47
2018-01-22T13:44:24.457Z,93.12
2018-01-22T13:46:57.032Z,93.91
2018-01-22T13:49:30.136Z,93.97
2018-01-22T13:52:03.275Z,93.58
2018-01-22T13:54:35.887Z,94.47
2018-01-22T13:57:08.858Z,94.91
2018-01-22T13:59:42.425Z,94.73
2018-01-22T14:02:13.972Z,94.27
2018-01-22T14:04:46.954Z,94.98
2018-01-22T14:07:19.511Z,94.58
2018-01-22T14:12:28.143Z,95.41
2018-01-22T14:17:41.906Z,96.25
2018-01-22T14:22:50.859Z,96.68
2018-01-22T14:25:22.960Z,97.11
2018-01-22T14:27:54.442Z,97.94
2018-01-22T14:30:28.661Z,98.23
2018-01-22T14:33:01.767Z,98.77
2018-01-22T14:35:33.324Z,97.93
2018-01-22T14:43:20.014Z,98.13
2018-01-22T14:45:52.430Z,98.85
2018-01-22T14:48:23.777Z,98.58
2018-01-22T14:53:32.641Z,99.39
2018-01-22T14:56:05.466Z,99.29
2018-01-22T14:58:38.246Z,99.02
2018-01-22T15:01:20.334Z,99.31
2018-01-22T15:03:53.324Z,99.00
2018-01-22T15:06:25.460Z,98.83
2018-01-22T15:08:58.829Z,99.60
2018-01-22T15:14:06.875Z,100.00
2018-01-22T15:16:40.060Z,100.00
2018-01-22T15:19:14.081Z,100.00
2018-01-22T15:21:47.431Z,100.00
2018-01-22T15:26:55.187Z,99.64
2018-01-22T15:29:29.088Z,100.00
2018-01-22T15:32:02.446Z,100.00
2018-01-22T15:34:35.568Z,100.00
2018-01-22T15:39:44.489Z,99.94
2018-01-22T15:42:16.632Z,99.99
2018-01-22T15:44:49.546Z,100.00
2018-01-22T15:47:21.794Z,99.65
2018-01-22T15:49:55.504Z,99.76
2018-01-22T15:52:29.299Z,99.59
2018-01-22T15:55:02.984Z,99.47
2018-01-22T15:57:35.319Z,99.93
2018-01-22T16:00:08.006Z,100.00
2018-01-22T16:02:40.276Z,100.00
2018-01-22T16:05:14.791Z,100.00
2018-01-22T16:07:47.477Z,100.00
2018-01-22T16:10:20.575Z,100.00
2018-01-22T16:15:30.891Z,100.00
2018-01-22T16:17:59.914Z,100.00
2018-01-22T16:23:08.962Z,100.00
2018-01-22T16:25:41.574Z,100.00
2018-01-22T16:28:13.503Z,100.00
2018-01-22T16:30:46.244Z,100.00
2018-01-22T16:33:17.652Z,100.00
2018-01-22T16:35:49.811Z,100.00
2018-01-22T16:38:22.266Z,100.00
2018-01-22T16:40:54.594Z,100.00
2018-01-22T16:43:27.016Z,100.00
2018-01-22T16:45:59.400Z,100.00
2018-01-22T16:48:32.069Z,100.00
2018-01-22T16:51:05.434Z,100.00
2018-01-22T16:53:38.917Z,100.00
2018-01-22T16:56:13.149Z,100.00
2018-01-22T16:58:45.267Z,100.00
2018-01-22T17:01:16.300Z,100.00
2018-01-22T17:03:47.807Z,100.00
2018-01-22T17:06:20.484Z,99.50
2018-01-22T17:08:53.151Z,98.85
2018-01-22T17:11:26.713Z,98.94
2018-01-22T17:16:35.869Z,99.41
2018-01-22T17:19:08.925Z,99.86
2018-01-22T17:21:42.002Z,100.00
2018-01-22T17:24:14.571Z,100.00
2018-01-22T17:26:47.680Z,100.00
2018-01-22T17:29:20.622Z,100.00
2018-01-22T17:31:52.412Z,100.00
2018-01-22T17:34:25.523Z,100.00
2018-01-22T17:36:58.413Z,100.00
2018-01-22T17:39:31.857Z,100.00
2018-01-22T17:42:05.187Z,100.00
2018-01-22T17:44:37.449Z,100.00
2018-01-22T17:47:10.071Z,100.00
2018-01-22T17:49:43.648Z,100.00
2018-01-22T17:52:15.947Z,100.00
2018-01-22T17:54:48.711Z,100.00
2018-01-22T17:57:20.830Z,100.00
2018-01-22T17:59:54.678Z,100.00
2018-01-22T18:02:27.420Z,100.00
2018-01-22T18:05:00.316Z,100.00
2018-01-22T18:07:33.388Z,100.00
2018-01-22T18:10:06.010Z,100.00
2018-01-22T18:12:38.685Z,100.00
2018-01-22T18:15:11.051Z,100.00
2018-01-22T18:17:43.979Z,100.00
2018-01-22T18:20:16.728Z,100.00
2018-01-22T18:22:49.317Z,100.00
2018-01-22T18:25:22.030Z,100.00
2018-01-22T18:27:54.619Z,100.00
2018-01-22T18:30:28.083Z,100.00
2018-01-22T18:35:37.612Z,100.00
2018-01-22T18:38:09.786Z,100.00
2018-01-22T18:40:42.766Z,100.00
2018-01-22T18:43:14.908Z,100.00
2018-01-22T18:48:27.662Z,100.00
2018-01-22T18:51:00.494Z,100.00
2018-01-22T18:53:32.779Z,100.00
2018-01-22T18:56:05.658Z,100.00
2018-01-22T18:58:38.047Z,100.00
2018-01-22T19:01:10.714Z,100.00
2018-01-22T19:03:43.223Z,100.00
2018-01-22T19:06:16.756Z,100.00
2018-01-22T19:08:49.706Z,100.00
2018-01-22T19:11:23.336Z,100.00
2018-01-22T19:13:56.082Z,100.00
2018-01-22T19:16:29.058Z,100.00
2018-01-22T19:19:01.845Z,100.00
2018-01-22T19:21:34.999Z,100.00
2018-01-22T19:24:08.484Z,100.00
2018-01-22T19:26:41.520Z,100.00
2018-01-22T19:31:49.954Z,100.00
2018-01-22T19:34:23.885Z,100.00
2018-01-22T19:39:33.197Z,100.00
2018-01-22T19:42:07.314Z,100.00
2018-01-22T19:44:38.111Z,100.00
2018-01-22T19:47:11.873Z,100.00
2018-01-22T19:49:43.598Z,100.00
2018-01-22T19:52:16.644Z,100.00
2018-01-22T19:57:25.987Z,100.00
2018-01-22T19:59:59.203Z,100.00
2018-01-22T20:02:32.325Z,100.00
2018-01-22T20:05:05.256Z,100.00
2018-01-22T20:07:38.009Z,100.00
2018-01-22T20:10:11.778Z,100.00
2018-01-22T20:12:45.380Z,100.00
2018-01-22T20:15:18.234Z,100.00
2018-01-22T20:17:50.856Z,100.00
2018-01-22T20:20:23.777Z,100.00
2018-01-22T20:22:56.193Z,100.00
2018-01-22T20:25:29.184Z,100.00
2018-01-22T20:28:01.852Z,100.00
2018-01-22T20:30:35.707Z,100.00
2018-01-22T20:33:07.282Z,100.00
2018-01-22T20:38:16.289Z,100.00
2018-01-22T20:40:49.457Z,100.00
2018-01-22T20:43:22.890Z,100.00
2018-01-22T20:45:56.565Z,100.00
2018-01-22T20:48:30.176Z,100.00
2018-01-22T20:51:02.185Z,100.00
2018-01-22T20:53:35.125Z,100.00
2018-01-22T20:56:08.643Z,100.00
2018-01-22T20:58:41.579Z,100.00
2018-01-22T21:03:50.687Z,100.00
2018-01-22T21:06:23.368Z,100.00
2018-01-22T21:08:56.864Z,100.00
2018-01-22T21:11:30.387Z,100.00
2018-01-22T21:14:02.513Z,100.00
2018-01-22T21:16:34.335Z,100.00
2018-01-22T21:19:07.923Z,100.00
2018-01-22T21:21:40.630Z,100.00
2018-01-22T21:24:13.945Z,100.00
2018-01-22T21:26:47.327Z,100.00
2018-01-22T21:29:20.286Z,100.00
2018-01-22T21:31:53.570Z,100.00
2018-01-22T21:34:26.317Z,100.00
2018-01-22T21:39:36.540Z,100.00
2018-01-22T21:42:09.605Z,100.00
2018-01-22T21:44:41.221Z,100.00
2018-01-22T21:52:28.489Z,100.00
2018-01-22T21:55:00.803Z,100.00
2018-01-22T21:57:36.017Z,100.00
2018-01-22T22:00:09.756Z,100.00
2018-01-22T22:02:45.300Z,100.00
2018-01-22T22:05:18.880Z,100.00
2018-01-22T22:07:52.425Z,100.00
2018-01-22T22:10:24.849Z,100.00
2018-01-22T22:12:58.179Z,100.00
2018-01-22T22:15:29.794Z,100.00
2018-01-22T22:18:02.241Z,100.00
2018-01-22T22:20:34.207Z,100.00
2018-01-22T22:23:07.787Z,100.00
2018-01-22T22:25:40.569Z,100.00
2018-01-22T22:28:13.441Z,100.00
2018-01-22T22:30:46.593Z,100.00
2018-01-22T22:33:17.953Z,100.00
2018-01-22T22:35:50.817Z,100.00
2018-01-22T22:38:23.284Z,100.00
2018-01-22T22:43:31.487Z,100.00
2018-01-22T22:46:04.460Z,100.00
2018-01-22T22:48:37.613Z,100.00
2018-01-22T22:53:46.807Z,100.00
2018-01-22T22:56:19.242Z,100.00
2018-01-22T22:58:52.468Z,100.00
2018-01-22T23:01:25.090Z,100.00
2018-01-22T23:03:56.925Z,100.00
2018-01-22T23:06:29.298Z,100.00
2018-01-22T23:09:02.214Z,100.00
2018-01-22T23:11:35.652Z,100.00
2018-01-22T23:16:44.747Z,97.79
2018-01-22T23:24:28.327Z,98.93
2018-01-22T23:29:36.867Z,99.51
2018-01-22T23:34:44.647Z,99.87
2018-01-22T23:37:16.672Z,99.39
2018-01-22T23:42:26.500Z,99.50
2018-01-22T23:47:38.260Z,99.10
2018-01-22T23:50:11.097Z,99.11
2018-01-22T23:55:19.694Z,99.08
2018-01-22T23:57:51.936Z,99.36
